• NC Software is proud to announce the release of APDL - Airline Pilot Logbook version 10.0. Click here to view APDL on the Apple App store and install now.
  • Logbook Pro for Apple iOS version 8.1 is now available on the App Store. Major update including signature endorsements and dark/light theme support. Click here to install now.

White Xmas Southern TEXAS!

Wankel7

It's a slippery slope...
Joined
Nov 9, 2003
Posts
1,487
Total Time
6100
Laredo:
KLRD 250646Z 29003KT 10SM FEW004 BKB050 M01/M02 A3034
KLRD 250547Z 00000KT 10SM FEW002 BKN055 00/M01 A3038

[font=Monospace,Courier]KLRD 250449Z 32003KT 1SM -SN BR OVC002 00/M01 A3038[/font]
[font=Monospace,Courier]KLRD 250349Z 33006KT 1 1/2SM -SN BR BKN002 OVC011 00/M01 A3038[/font]
[font=Monospace,Courier]KLRD 250250Z 02005KT 6SM -SN SCT001 BKN010 00/M01 A3038[/font]
[font=Monospace,Courier]KLRD 250150Z 35008KT 1 3/4SM -SN FEW001 BKN010 OVC016 01/M02 A3038[/font]
[font=Monospace,Courier]KLRD 250050Z 33006KT 3SM SN SCT001 OVC011 01/M03 A3036 RMK RE14SNB15[/font]
[font=Monospace,Courier]KLRD 242350Z 35005KT 6SM -RA SCT032 BKN040 02/M04 A3033[/font]
[font=Monospace,Courier]KLRD 242320Z 33016KT 6SM -RA SCT002 BKN046 02/M06 A3029 RMK RB18[/font]
[font=Monospace,Courier]KLRD 242246Z 34014KT 8SM BKN048 03/M07 A3027[/font]
[font=Monospace,Courier]KLRD 242220Z 34013KT 8SM BKN048 03/M07 A3027 RMK SGE16[/font]
[font=Monospace,Courier]KLRD 242146Z 32016KT 7SM SG SCT038 BKN046 03/M07 A3029[/font]

Brownsville:
KBRO 250704Z AUTO 33013G24KT 1SM -SN BR BKN005 OVC011 M01/M02 A3031 RMK AO2 P0001 FZRANO $
KBRO 250653Z AUTO 33016G23KT 3/4SM -SN BR BKN007 OVC012 M01/M02 A3031 RMK AO2 PK WND 34027/0633 SLP262 P0005 T10111022 FZRANO $

[font=Monospace,Courier]KBRO 250631Z AUTO 34018G21KT 1 3/4SM -SN BR FEW008 OVC014 M01/M02 A3031 RMK AO2 PK WND 34027/0617 P0003 FZRANO $[/font]
[font=Monospace,Courier]KBRO 250615Z AUTO 34018G25KT 2 1/2SM -SN BR FEW007 BKN011 OVC016 M01/M02 A3031 RMK AO2 LTG DSNT N P0002 FZRANO $[/font]
[font=Monospace,Courier]KBRO 250612Z AUTO 34013G19KT 3SM -SN BR SCT009 OVC013 M01/M02 A3032 RMK AO2 LTG DSNT N P0002 FZRANO $[/font]
[font=Monospace,Courier]KBRO 250553Z AUTO 33015KT 6SM -SN BR FEW010 OVC014 00/M02 A3032 RMK AO2 PK WND 33027/0530[/font]

Just wow! To bad I was in VA and missed it all :(

Wankel
 

JimNtexas

Well-known member
Joined
Dec 1, 2001
Posts
1,590
Total Time
2000
Brownsvillie had their first significant snow in 100 years! Victoria had 12"!!!!!!!!!!!!!!!!!!!!!

Austin is clear and a million.

Very strange.
 

Resume Writer

Registered User
Joined
Feb 7, 2004
Posts
1,121
Total Time
16 yrs
No white here in PHX! :) I know when I lived in Flagstaff, AZ, I did like the white Christmas effect. But that was slowly diminished when I had to dig my car out of snow!!

I will take my nice sun and the shorts I have been wearing within the last week! :D

Kathy
 

TonyC

Frederick's Happy Face
Joined
Oct 21, 2002
Posts
3,050
Total Time
>8,000
Resume Writer said:
I will take ... the shorts I have been wearing within the last week! :D

Two words of advice for you, Kathy: washing machine


;)





.
 

Resume Writer

Registered User
Joined
Feb 7, 2004
Posts
1,121
Total Time
16 yrs
TonyC said:
Two words of advice for you, Kathy: washing machine


;)

.
I do have more than one pair of shorts, Tony! :p

Kathy
 
Top